createdAt,value
2022-11-25T00:00:51.149Z,-0.35
2022-11-25T00:03:56.078Z,-0.42
2022-11-25T00:06:58.863Z,-0.52
2022-11-25T00:10:01.246Z,-0.63
2022-11-25T00:13:04.186Z,-0.69
2022-11-25T00:16:09.792Z,-0.59
2022-11-25T00:19:12.330Z,-0.68
2022-11-25T00:22:15.329Z,-0.71
2022-11-25T00:25:17.878Z,-0.71
2022-11-25T00:28:20.293Z,-0.63
2022-11-25T00:31:28.293Z,-0.74
2022-11-25T00:34:31.619Z,-0.78
2022-11-25T00:37:33.975Z,-0.73
2022-11-25T00:40:36.946Z,-0.63
2022-11-25T00:43:58.672Z,-0.70
2022-11-25T00:47:02.239Z,-0.71
2022-11-25T00:50:05.313Z,-0.73
2022-11-25T00:53:07.721Z,-0.73
2022-11-25T00:56:14.163Z,-0.68
2022-11-25T00:59:17.055Z,-0.53
2022-11-25T01:02:20.089Z,-0.51
2022-11-25T01:05:22.649Z,-0.65
2022-11-25T01:08:25.074Z,-0.74
2022-11-25T01:11:27.731Z,-0.73
2022-11-25T01:14:31.364Z,-0.67
2022-11-25T01:17:34.197Z,-0.69
2022-11-25T01:20:37.089Z,-0.57
2022-11-25T01:23:40.624Z,-0.60
2022-11-25T01:26:44.414Z,-0.54
2022-11-25T01:29:46.898Z,-0.53
2022-11-25T01:32:49.295Z,-0.58
2022-11-25T01:35:51.797Z,-0.49
2022-11-25T01:38:56.734Z,-0.55
2022-11-25T01:42:00.200Z,-0.56
2022-11-25T01:45:34.077Z,-0.56
2022-11-25T01:48:42.963Z,-0.65
2022-11-25T01:52:02.905Z,-0.54
2022-11-25T01:55:12.724Z,-0.47
2022-11-25T01:58:26.388Z,-0.50
2022-11-25T02:01:29.234Z,-0.48
2022-11-25T02:04:34.940Z,-0.52
2022-11-25T02:07:40.912Z,-0.57
2022-11-25T02:10:44.217Z,-0.64
2022-11-25T02:13:48.621Z,-0.48
2022-11-25T02:16:51.548Z,-0.56
2022-11-25T02:20:01.384Z,-0.50
2022-11-25T02:23:08.211Z,-0.43
2022-11-25T02:26:10.593Z,-0.57
2022-11-25T02:29:13.650Z,-0.71
2022-11-25T02:32:16.096Z,-0.85
2022-11-25T02:35:27.696Z,-0.87
2022-11-25T02:38:45.407Z,-0.94
2022-11-25T02:41:53.034Z,-0.87
2022-11-25T02:44:56.149Z,-1.11
2022-11-25T02:47:59.976Z,-0.94
2022-11-25T02:51:03.018Z,-0.71
2022-11-25T02:54:06.736Z,-0.67
2022-11-25T02:57:09.518Z,-0.69
2022-11-25T03:00:12.879Z,-0.30
2022-11-25T03:03:16.290Z,-0.00
2022-11-25T03:06:22.392Z,-0.02
2022-11-25T03:09:24.951Z,-0.20
2022-11-25T03:12:29.423Z,-0.36
2022-11-25T03:15:34.067Z,-0.35
2022-11-25T03:18:36.888Z,-0.41
2022-11-25T03:21:39.427Z,-0.41
2022-11-25T03:24:42.135Z,-0.56
2022-11-25T03:27:44.908Z,-0.17
2022-11-25T03:30:47.468Z,-0.19
2022-11-25T03:33:49.899Z,-0.24
2022-11-25T03:36:52.461Z,-0.17
2022-11-25T03:39:55.650Z,-0.18
2022-11-25T03:42:58.151Z,0.02
2022-11-25T03:46:00.714Z,0.13
2022-11-25T03:49:03.654Z,0.05
2022-11-25T03:52:06.458Z,-0.04
2022-11-25T03:55:09.282Z,-0.08
2022-11-25T03:58:12.892Z,-0.20
2022-11-25T04:01:16.204Z,-0.03
2022-11-25T04:04:20.620Z,0.09
2022-11-25T04:07:23.650Z,0.10
2022-11-25T04:10:26.740Z,0.18
2022-11-25T04:13:31.128Z,-0.01
2022-11-25T04:16:33.696Z,-0.09
2022-11-25T04:19:36.756Z,-0.08
2022-11-25T04:22:39.971Z,0.07
2022-11-25T04:25:43.780Z,0.25
2022-11-25T04:28:57.754Z,-0.02
2022-11-25T04:32:00.446Z,0.07
2022-11-25T04:35:03.170Z,0.08
2022-11-25T04:38:05.659Z,0.06
2022-11-25T04:41:11.486Z,-0.09
2022-11-25T04:44:18.255Z,0.01
2022-11-25T04:47:21.096Z,-0.04
2022-11-25T04:50:24.762Z,0.04
2022-11-25T04:53:38.384Z,0.16
2022-11-25T04:56:42.795Z,0.18
2022-11-25T04:59:45.965Z,-0.06
2022-11-25T05:02:49.875Z,0.06
2022-11-25T05:05:55.644Z,-0.06
2022-11-25T05:08:59.442Z,0.13
2022-11-25T05:12:03.039Z,0.01
2022-11-25T05:15:08.051Z,-0.03
2022-11-25T05:18:13.480Z,0.04
2022-11-25T05:21:21.482Z,-0.20
2022-11-25T05:24:25.573Z,-0.02
2022-11-25T05:27:29.333Z,0.01
2022-11-25T05:30:35.812Z,-0.04
2022-11-25T05:33:38.771Z,-0.07
2022-11-25T05:36:43.984Z,-0.28
2022-11-25T05:39:46.523Z,-0.16
2022-11-25T05:43:19.341Z,-0.22
2022-11-25T05:46:22.381Z,-0.01
2022-11-25T05:49:33.373Z,-0.15
2022-11-25T05:52:36.704Z,-0.08
2022-11-25T05:55:40.735Z,-0.22
2022-11-25T05:58:52.216Z,-0.03
2022-11-25T06:01:56.374Z,0.19
2022-11-25T06:04:59.226Z,-0.21
2022-11-25T06:08:01.904Z,0.03
2022-11-25T06:11:09.194Z,-0.01
2022-11-25T06:14:13.222Z,-0.11
2022-11-25T06:17:16.553Z,-0.06
2022-11-25T06:20:32.012Z,-0.23
2022-11-25T06:23:34.854Z,-0.03
2022-11-25T06:26:37.677Z,0.15
2022-11-25T06:29:41.406Z,0.03
2022-11-25T06:32:43.974Z,0.02
2022-11-25T06:35:55.935Z,-0.03
2022-11-25T06:38:58.179Z,0.06
2022-11-25T06:42:00.662Z,0.06
2022-11-25T06:45:03.638Z,0.16
2022-11-25T06:48:07.570Z,-0.01
2022-11-25T06:51:14.546Z,0.23
2022-11-25T06:54:17.489Z,0.01
2022-11-25T06:57:20.410Z,-0.01
2022-11-25T07:00:23.006Z,0.26
2022-11-25T07:03:26.584Z,0.04
2022-11-25T07:06:30.366Z,0.15
2022-11-25T07:09:33.275Z,0.08
2022-11-25T07:12:35.845Z,0.20
2022-11-25T07:15:38.736Z,0.37
2022-11-25T07:18:42.267Z,0.40
2022-11-25T07:21:45.804Z,-0.06
2022-11-25T07:24:48.701Z,0.38
2022-11-25T07:27:51.490Z,0.36
2022-11-25T07:31:22.799Z,0.23
2022-11-25T07:34:20.895Z,0.20
2022-11-25T07:37:23.303Z,0.50
2022-11-25T07:40:26.158Z,0.47
2022-11-25T07:43:29.131Z,0.57
2022-11-25T07:46:40.179Z,0.61
2022-11-25T07:49:43.161Z,0.43
2022-11-25T07:52:45.538Z,0.49
2022-11-25T07:55:48.344Z,0.59
2022-11-25T07:58:51.172Z,0.50
2022-11-25T08:01:55.640Z,0.60
2022-11-25T08:04:58.292Z,0.66
2022-11-25T08:08:01.004Z,0.49
2022-11-25T08:11:15.264Z,0.63
2022-11-25T08:14:17.714Z,0.54
2022-11-25T08:17:20.522Z,0.57
2022-11-25T08:20:22.986Z,0.59
2022-11-25T08:23:25.419Z,0.50
2022-11-25T08:26:37.793Z,0.59
2022-11-25T08:29:41.014Z,0.60
2022-11-25T08:32:44.031Z,0.49
2022-11-25T08:35:54.878Z,0.50
2022-11-25T08:38:59.321Z,0.57
2022-11-25T08:42:04.643Z,0.67
2022-11-25T08:45:09.098Z,0.65
2022-11-25T08:48:11.848Z,0.68
2022-11-25T08:51:18.759Z,0.84
2022-11-25T08:54:22.824Z,0.74
2022-11-25T08:57:25.861Z,0.63
2022-11-25T09:00:28.615Z,0.75
2022-11-25T09:03:39.862Z,0.71
2022-11-25T09:06:42.397Z,0.74
2022-11-25T09:09:45.801Z,0.30
2022-11-25T09:12:48.422Z,0.50
2022-11-25T09:15:50.878Z,0.74
2022-11-25T09:18:56.003Z,0.47
2022-11-25T09:21:59.067Z,0.60
2022-11-25T09:25:01.488Z,0.45
2022-11-25T09:28:04.403Z,0.85
2022-11-25T09:31:08.940Z,1.34
2022-11-25T09:34:11.451Z,1.12
2022-11-25T09:37:14.010Z,1.46
2022-11-25T09:40:20.673Z,1.40
2022-11-25T09:43:56.908Z,1.25
2022-11-25T09:47:09.461Z,1.32
2022-11-25T09:50:29.957Z,1.70
2022-11-25T09:54:03.314Z,1.91
2022-11-25T09:57:32.130Z,2.08
2022-11-25T10:00:46.824Z,1.94
2022-11-25T10:04:16.028Z,2.10
2022-11-25T10:07:26.345Z,1.90
2022-11-25T10:10:56.545Z,1.39
2022-11-25T10:14:06.828Z,1.40
2022-11-25T10:17:39.548Z,1.29
2022-11-25T10:20:42.797Z,1.27
2022-11-25T10:23:45.799Z,1.39
2022-11-25T10:26:59.910Z,1.14
2022-11-25T10:30:04.704Z,1.15
2022-11-25T10:33:19.297Z,1.64
2022-11-25T10:36:34.393Z,1.53
2022-11-25T10:39:37.394Z,1.81
2022-11-25T10:42:40.436Z,2.03
2022-11-25T10:46:05.830Z,2.13
2022-11-25T10:49:49.729Z,2.13
2022-11-25T10:53:01.954Z,1.69
2022-11-25T10:56:12.759Z,1.85
2022-11-25T10:59:23.638Z,2.26
2022-11-25T11:02:35.130Z,2.19
2022-11-25T11:05:46.733Z,1.73
2022-11-25T11:08:49.595Z,1.54
2022-11-25T11:11:52.197Z,2.09
2022-11-25T11:15:14.142Z,1.81
2022-11-25T11:18:31.196Z,2.21
2022-11-25T11:21:39.878Z,2.39
2022-11-25T11:24:42.819Z,2.33
2022-11-25T11:27:46.013Z,2.15
2022-11-25T11:31:10.324Z,1.57
2022-11-25T11:34:40.502Z,1.79
2022-11-25T11:37:46.007Z,1.55
2022-11-25T11:40:59.158Z,1.46
2022-11-25T11:44:07.526Z,1.53
2022-11-25T11:47:26.201Z,1.51
2022-11-25T11:50:36.001Z,1.55
2022-11-25T11:53:51.657Z,1.17
2022-11-25T11:57:01.147Z,1.06
2022-11-25T12:00:07.564Z,1.03
2022-11-25T12:03:19.061Z,0.88
2022-11-25T12:06:22.323Z,0.81
2022-11-25T12:09:27.084Z,0.98
2022-11-25T12:12:40.058Z,0.96
2022-11-25T12:15:46.683Z,0.89
2022-11-25T12:19:05.173Z,0.96
2022-11-25T12:22:29.378Z,1.00
2022-11-25T12:25:39.157Z,1.34
2022-11-25T12:28:49.154Z,1.19
2022-11-25T12:31:58.167Z,1.31
2022-11-25T12:35:02.556Z,1.45
2022-11-25T12:38:04.990Z,1.37
2022-11-25T12:41:37.088Z,1.23
2022-11-25T12:45:07.405Z,1.24
2022-11-25T12:48:13.109Z,1.47
2022-11-25T12:51:58.252Z,1.46
2022-11-25T12:55:20.013Z,1.24
2022-11-25T12:58:35.486Z,1.16
2022-11-25T13:02:00.116Z,0.97
2022-11-25T13:05:40.109Z,1.07
2022-11-25T13:08:55.464Z,1.33
2022-11-25T13:12:39.459Z,1.58
2022-11-25T13:15:47.176Z,1.42
2022-11-25T13:18:50.740Z,1.78
2022-11-25T13:22:02.950Z,1.63
2022-11-25T13:25:26.000Z,1.75
2022-11-25T13:28:32.383Z,1.65
2022-11-25T13:31:37.513Z,1.37
2022-11-25T13:34:40.349Z,1.20
2022-11-25T13:37:43.338Z,1.24
2022-11-25T13:40:58.541Z,1.20
2022-11-25T13:44:22.492Z,1.13
2022-11-25T13:47:29.850Z,0.85
2022-11-25T13:50:55.477Z,0.86
2022-11-25T13:54:02.246Z,0.80
2022-11-25T13:57:10.863Z,0.67
2022-11-25T14:00:16.267Z,0.61
2022-11-25T14:03:21.511Z,0.51
2022-11-25T14:06:51.278Z,0.27
2022-11-25T14:10:03.828Z,0.50
2022-11-25T14:13:06.292Z,0.34
2022-11-25T14:16:38.187Z,0.30
2022-11-25T14:19:56.048Z,0.21
2022-11-25T14:23:22.702Z,0.18
2022-11-25T14:29:59.771Z,0.26
2022-11-25T14:33:10.293Z,-0.02
2022-11-25T14:36:16.180Z,0.17
2022-11-25T14:39:47.516Z,0.22
2022-11-25T14:42:53.165Z,0.16
2022-11-25T14:46:17.638Z,0.14
2022-11-25T14:49:46.579Z,0.05
2022-11-25T14:52:48.501Z,-0.16
2022-11-25T14:55:51.420Z,-0.26
2022-11-25T14:58:56.286Z,-0.24
2022-11-25T15:01:58.844Z,-0.33
2022-11-25T15:05:17.031Z,-0.40
2022-11-25T15:08:22.136Z,-0.57
2022-11-25T15:11:27.627Z,-0.56
2022-11-25T15:14:33.041Z,-0.66
2022-11-25T15:17:40.075Z,-0.63
2022-11-25T15:20:47.598Z,-0.70
2022-11-25T15:23:50.336Z,-0.60
2022-11-25T15:26:55.333Z,-0.70
2022-11-25T15:29:58.157Z,-0.68
2022-11-25T15:33:04.220Z,-0.83
2022-11-25T15:36:07.537Z,-0.77
2022-11-25T15:39:22.413Z,-0.79
2022-11-25T15:42:27.009Z,-1.00
2022-11-25T15:45:58.058Z,-1.05
2022-11-25T15:49:03.685Z,-1.02
2022-11-25T15:52:16.973Z,-1.09
2022-11-25T15:55:29.128Z,-0.90
2022-11-25T15:58:31.771Z,-0.83
2022-11-25T16:01:35.651Z,-0.85
2022-11-25T16:04:38.403Z,-0.96
2022-11-25T16:07:53.081Z,-0.98
2022-11-25T16:10:59.497Z,-1.13
2022-11-25T16:14:18.697Z,-1.07
2022-11-25T16:17:21.833Z,-1.03
2022-11-25T16:20:25.299Z,-1.24
2022-11-25T16:23:28.336Z,-1.30
2022-11-25T16:26:34.149Z,-1.41
2022-11-25T16:29:48.617Z,-1.37
2022-11-25T16:32:51.263Z,-1.45
2022-11-25T16:35:53.840Z,-1.40
2022-11-25T16:38:56.994Z,-1.54
2022-11-25T16:42:04.965Z,-1.48
2022-11-25T16:45:18.745Z,-1.58
2022-11-25T16:48:24.745Z,-1.37
2022-11-25T16:51:27.388Z,-1.52
2022-11-25T16:54:31.571Z,-1.60
2022-11-25T16:57:35.055Z,-1.76
2022-11-25T17:00:38.028Z,-1.82
2022-11-25T17:03:41.127Z,-1.83
2022-11-25T17:06:50.528Z,-1.84
2022-11-25T17:10:07.237Z,-1.39
2022-11-25T17:13:17.618Z,-1.36
2022-11-25T17:16:26.211Z,-1.38
2022-11-25T17:19:30.635Z,-1.35
2022-11-25T17:22:38.777Z,-1.40
2022-11-25T17:25:46.525Z,-1.35
2022-11-25T17:28:57.187Z,-1.31
2022-11-25T17:31:59.566Z,-1.40
2022-11-25T17:35:02.076Z,-1.54
2022-11-25T17:38:14.500Z,-1.47
2022-11-25T17:41:19.083Z,-1.56
2022-11-25T17:44:27.546Z,-1.59
2022-11-25T17:47:30.056Z,-1.76
2022-11-25T17:50:32.793Z,-1.94
2022-11-25T17:53:39.983Z,-2.11
2022-11-25T17:56:49.047Z,-2.30
2022-11-25T17:59:54.590Z,-2.38
2022-11-25T18:02:57.246Z,-2.30
2022-11-25T18:05:59.896Z,-2.30
2022-11-25T18:09:02.876Z,-2.50
2022-11-25T18:12:10.150Z,-2.43
2022-11-25T18:15:21.884Z,-2.54
2022-11-25T18:18:25.676Z,-2.90
2022-11-25T18:21:29.129Z,-2.93
2022-11-25T18:24:31.442Z,-2.83
2022-11-25T18:27:33.958Z,-2.82
2022-11-25T18:30:37.153Z,-2.74
2022-11-25T18:33:40.382Z,-2.66
2022-11-25T18:36:43.569Z,-2.59
2022-11-25T18:39:46.804Z,-2.58
2022-11-25T18:42:54.958Z,-2.49
2022-11-25T18:45:58.127Z,-2.43
2022-11-25T18:49:00.818Z,-2.49
2022-11-25T18:52:03.100Z,-2.45
2022-11-25T18:55:06.494Z,-2.48
2022-11-25T18:58:27.237Z,-2.45
2022-11-25T19:01:30.397Z,-2.45
2022-11-25T19:04:33.977Z,-2.61
2022-11-25T19:07:37.557Z,-2.58
2022-11-25T19:10:41.723Z,-2.70
2022-11-25T19:13:48.893Z,-2.65
2022-11-25T19:16:52.195Z,-2.51
2022-11-25T19:19:55.303Z,-2.45
2022-11-25T19:23:01.069Z,-2.25
2022-11-25T19:26:08.097Z,-2.24
2022-11-25T19:29:14.254Z,-2.34
2022-11-25T19:32:26.333Z,-2.39
2022-11-25T19:35:38.445Z,-2.36
2022-11-25T19:38:41.368Z,-2.27
2022-11-25T19:41:43.762Z,-2.20
2022-11-25T19:44:47.093Z,-2.46
2022-11-25T19:47:51.441Z,-2.52
2022-11-25T19:50:59.952Z,-2.42
2022-11-25T19:54:02.790Z,-2.42
2022-11-25T19:57:05.321Z,-2.46
2022-11-25T20:00:09.327Z,-2.47
2022-11-25T20:03:25.236Z,-2.57
2022-11-25T20:06:27.765Z,-2.69
2022-11-25T20:09:30.864Z,-2.72
2022-11-25T20:12:33.773Z,-2.67
2022-11-25T20:15:38.376Z,-2.65
2022-11-25T20:18:40.805Z,-2.59
2022-11-25T20:21:44.638Z,-2.41
2022-11-25T20:24:47.619Z,-2.30
2022-11-25T20:27:50.788Z,-2.38
2022-11-25T20:30:53.831Z,-2.40
2022-11-25T20:33:56.901Z,-2.33
2022-11-25T20:36:59.385Z,-2.38
2022-11-25T20:40:01.886Z,-2.07
2022-11-25T20:43:04.408Z,-1.98
2022-11-25T20:46:12.842Z,-1.98
2022-11-25T20:49:27.483Z,-1.99
2022-11-25T20:52:33.622Z,-1.98
2022-11-25T20:55:36.113Z,-1.94
2022-11-25T20:58:38.566Z,-2.27
2022-11-25T21:01:41.354Z,-2.48
2022-11-25T21:04:43.893Z,-2.42
2022-11-25T21:07:47.595Z,-2.52
2022-11-25T21:10:50.364Z,-2.52
2022-11-25T21:13:53.128Z,-2.75
2022-11-25T21:16:55.604Z,-2.76
2022-11-25T21:19:58.361Z,-2.98
2022-11-25T21:23:05.639Z,-2.94
2022-11-25T21:26:18.224Z,-2.88
2022-11-25T21:29:21.540Z,-2.76
2022-11-25T21:32:27.341Z,-2.60
2022-11-25T21:35:34.378Z,-2.53
2022-11-25T21:38:36.942Z,-2.56
2022-11-25T21:41:39.545Z,-2.59
2022-11-25T21:44:43.578Z,-2.47
2022-11-25T21:47:46.079Z,-2.49
2022-11-25T21:50:48.835Z,-2.31
2022-11-25T21:53:52.509Z,-2.50
2022-11-25T21:56:54.831Z,-2.39
2022-11-25T21:59:57.371Z,-2.45
2022-11-25T22:02:59.820Z,-2.50
2022-11-25T22:06:02.475Z,-2.62
2022-11-25T22:09:05.065Z,-2.67
2022-11-25T22:12:08.321Z,-2.71
2022-11-25T22:15:15.554Z,-2.68
2022-11-25T22:18:20.439Z,-2.67
2022-11-25T22:21:23.028Z,-2.45
2022-11-25T22:24:25.970Z,-2.48
2022-11-25T22:27:36.093Z,-2.38
2022-11-25T22:30:38.786Z,-2.41
2022-11-25T22:33:41.397Z,-2.35
2022-11-25T22:36:44.624Z,-2.37
2022-11-25T22:39:47.682Z,-2.34
2022-11-25T22:42:51.512Z,-2.40
2022-11-25T22:45:54.761Z,-2.42
2022-11-25T22:48:57.498Z,-2.62
2022-11-25T22:52:00.260Z,-2.71
2022-11-25T22:55:21.045Z,-2.78
2022-11-25T22:58:25.112Z,-2.86
2022-11-25T23:01:27.442Z,-2.88
2022-11-25T23:04:30.237Z,-2.83
2022-11-25T23:07:32.809Z,-2.89
2022-11-25T23:10:35.496Z,-2.81
2022-11-25T23:13:38.142Z,-2.80
2022-11-25T23:16:42.139Z,-2.79
2022-11-25T23:19:44.734Z,-2.83
2022-11-25T23:22:47.626Z,-2.69
2022-11-25T23:25:50.762Z,-2.97
2022-11-25T23:28:53.518Z,-2.84
2022-11-25T23:31:56.053Z,-2.76
2022-11-25T23:34:58.868Z,-2.75
2022-11-25T23:38:01.703Z,-2.78
2022-11-25T23:41:04.128Z,-2.81
2022-11-25T23:44:18.403Z,-2.79
2022-11-25T23:47:23.412Z,-2.86
2022-11-25T23:50:32.538Z,-2.81
2022-11-25T23:53:37.973Z,-2.93
2022-11-25T23:56:41.023Z,-3.02
2022-11-25T23:59:44.572Z,-3.06
